createdAt,value
2022-12-13T00:02:13.189Z,37.70
2022-12-13T00:06:14.404Z,33.60
2022-12-13T00:10:15.476Z,35.60
2022-12-13T00:14:16.569Z,33.73
2022-12-13T00:18:17.726Z,35.10
2022-12-13T00:22:18.792Z,42.70
2022-12-13T00:26:22.869Z,35.33
2022-12-13T00:30:25.073Z,36.83
2022-12-13T00:34:26.633Z,41.70
2022-12-13T00:38:27.699Z,41.40
2022-12-13T00:42:28.784Z,36.73
2022-12-13T00:46:30.832Z,39.63
2022-12-13T00:50:32.962Z,40.20
2022-12-13T00:54:34.461Z,40.40
2022-12-13T00:58:35.537Z,44.97
2022-12-13T01:02:37.003Z,41.13
2022-12-13T01:06:44.076Z,44.27
2022-12-13T01:10:46.325Z,37.93
2022-12-13T01:14:50.688Z,39.13
2022-12-13T01:18:50.364Z,34.97
2022-12-13T01:22:51.442Z,39.27
2022-12-13T01:26:53.407Z,34.20
2022-12-13T01:30:58.636Z,45.57
2022-12-13T01:34:59.768Z,39.07
2022-12-13T01:39:00.834Z,36.30
2022-12-13T01:43:01.906Z,42.90
2022-12-13T01:47:05.432Z,44.90
2022-12-13T01:51:10.006Z,40.53
2022-12-13T01:55:11.858Z,41.13
2022-12-13T01:59:15.112Z,45.00
2022-12-13T02:03:21.777Z,39.70
2022-12-13T02:07:24.746Z,40.03
2022-12-13T02:11:27.020Z,43.27
2022-12-13T02:15:32.033Z,39.20
2022-12-13T02:19:52.250Z,42.97
2022-12-13T02:24:15.607Z,39.30
2022-12-13T02:28:33.043Z,41.03
2022-12-13T02:32:40.942Z,40.97
2022-12-13T02:36:58.190Z,41.60
2022-12-13T02:41:15.425Z,43.03
2022-12-13T02:45:21.268Z,42.43
2022-12-13T02:49:24.802Z,40.00
2022-12-13T02:53:26.641Z,38.70
2022-12-13T02:57:36.264Z,39.40
2022-12-13T03:01:50.492Z,45.67
2022-12-13T03:06:25.708Z,39.50
2022-12-13T03:10:35.527Z,40.73
2022-12-13T03:14:40.581Z,33.30
2022-12-13T03:18:43.433Z,32.53
2022-12-13T03:22:44.715Z,33.23
2022-12-13T03:26:47.678Z,37.70
2022-12-13T03:30:48.869Z,30.17
2022-12-13T03:35:00.490Z,34.57
2022-12-13T03:38:54.631Z,38.50
2022-12-13T03:42:55.800Z,37.37
2022-12-13T03:47:00.656Z,35.57
2022-12-13T03:51:03.131Z,33.43
2022-12-13T03:55:04.508Z,38.23
2022-12-13T03:59:05.557Z,31.60
2022-12-13T04:03:06.664Z,40.30
2022-12-13T04:07:22.378Z,32.27
2022-12-13T04:11:29.140Z,34.90
2022-12-13T04:15:31.009Z,38.10
2022-12-13T04:19:32.065Z,35.50
2022-12-13T04:23:33.145Z,36.90
2022-12-13T04:27:34.203Z,31.00
2022-12-13T04:31:35.281Z,31.13
2022-12-13T04:35:36.467Z,31.27
2022-12-13T04:39:37.524Z,31.37
2022-12-13T04:43:38.714Z,33.17
2022-12-13T04:47:39.866Z,28.40
2022-12-13T04:51:42.834Z,32.50
2022-12-13T04:55:45.790Z,33.40
2022-12-13T04:59:46.881Z,30.67
2022-12-13T05:03:48.063Z,32.47
2022-12-13T05:07:49.305Z,29.90
2022-12-13T05:11:50.432Z,32.80
2022-12-13T05:15:58.324Z,33.90
2022-12-13T05:19:59.521Z,34.30
2022-12-13T05:24:02.704Z,33.83
2022-12-13T05:28:27.204Z,40.30
2022-12-13T05:32:07.859Z,36.20
2022-12-13T05:36:09.335Z,38.03
2022-12-13T05:40:10.769Z,36.67
2022-12-13T05:44:12.829Z,36.80
2022-12-13T05:48:13.937Z,34.07
2022-12-13T05:52:18.290Z,31.50
2022-12-13T05:56:22.437Z,48.50
2022-12-13T06:00:30.246Z,47.93
2022-12-13T06:04:25.729Z,33.20
2022-12-13T06:08:26.935Z,43.67
2022-12-13T06:12:31.870Z,33.43
2022-12-13T06:16:31.106Z,33.60
2022-12-13T06:20:32.273Z,33.40
2022-12-13T06:24:33.446Z,33.43
2022-12-13T06:28:35.013Z,36.47
2022-12-13T06:32:39.953Z,34.90
2022-12-13T06:36:39.036Z,32.40
2022-12-13T06:40:40.116Z,32.37
2022-12-13T06:44:41.505Z,36.60
2022-12-13T06:48:42.882Z,37.67
2022-12-13T06:52:46.454Z,38.00
2022-12-13T06:56:47.538Z,42.80
2022-12-13T07:00:49.537Z,43.53
2022-12-13T07:04:50.779Z,49.63
2022-12-13T07:08:55.255Z,38.13
2022-12-13T07:12:56.364Z,39.03
2022-12-13T07:17:03.407Z,42.70
2022-12-13T07:21:07.650Z,40.57
2022-12-13T07:25:27.471Z,38.57
2022-12-13T07:29:11.941Z,38.87
2022-12-13T07:33:13.298Z,37.43
2022-12-13T07:37:29.292Z,37.13
2022-12-13T07:41:23.210Z,34.97
2022-12-13T07:45:23.258Z,36.70
2022-12-13T07:49:24.440Z,37.23
2022-12-13T07:53:26.102Z,37.50
2022-12-13T07:57:27.666Z,39.30
2022-12-13T08:01:33.277Z,37.20
2022-12-13T08:05:38.153Z,32.90
2022-12-13T08:09:39.862Z,37.20
2022-12-13T08:13:41.211Z,37.00
2022-12-13T08:17:42.773Z,33.03
2022-12-13T08:22:01.978Z,38.20
2022-12-13T08:25:52.123Z,48.30
2022-12-13T08:29:53.295Z,35.67
2022-12-13T08:33:54.405Z,35.00
2022-12-13T08:37:56.063Z,37.27
2022-12-13T08:41:59.887Z,39.30
2022-12-13T08:46:07.268Z,36.70
2022-12-13T08:50:15.588Z,32.60
2022-12-13T08:54:31.106Z,40.97
2022-12-13T08:58:20.356Z,38.97
2022-12-13T09:02:26.879Z,40.17
2022-12-13T09:06:42.547Z,44.07
2022-12-13T09:10:49.179Z,38.00
2022-12-13T09:15:04.670Z,32.17
2022-12-13T09:19:25.150Z,28.87
2022-12-13T09:23:36.995Z,35.57
2022-12-13T09:27:39.597Z,28.33
2022-12-13T09:31:51.113Z,30.60
2022-12-13T09:35:57.363Z,30.53
2022-12-13T09:40:16.427Z,29.83
2022-12-13T09:44:07.711Z,25.87
2022-12-13T09:48:14.879Z,29.93
2022-12-13T09:52:21.624Z,27.63
2022-12-13T09:56:27.876Z,36.93
2022-12-13T10:00:33.342Z,25.50
2022-12-13T10:04:35.149Z,29.40
2022-12-13T10:08:42.256Z,25.97
2022-12-13T10:12:48.417Z,26.97
2022-12-13T10:16:54.479Z,28.70
2022-12-13T10:20:58.553Z,31.80
2022-12-13T10:25:05.864Z,27.17
2022-12-13T10:29:07.958Z,22.87
2022-12-13T10:33:19.182Z,27.67
2022-12-13T10:37:33.880Z,30.80
2022-12-13T10:41:40.740Z,29.93
2022-12-13T10:45:44.813Z,27.00
2022-12-13T10:49:59.348Z,26.90
2022-12-13T10:54:00.138Z,26.53
2022-12-13T10:58:11.878Z,22.23
2022-12-13T11:02:40.540Z,28.87
2022-12-13T11:06:52.533Z,27.90
2022-12-13T11:11:05.721Z,30.13
2022-12-13T11:15:19.283Z,25.10
2022-12-13T11:19:52.771Z,25.87
2022-12-13T11:24:01.547Z,31.33
2022-12-13T11:28:27.220Z,32.73
2022-12-13T11:32:48.392Z,26.30
2022-12-13T11:37:02.929Z,27.00
2022-12-13T11:41:32.587Z,31.27
2022-12-13T11:45:34.587Z,20.73
2022-12-13T11:49:54.814Z,27.80
2022-12-13T11:54:24.061Z,30.47
2022-12-13T11:59:05.881Z,28.43
2022-12-13T12:03:03.452Z,27.93
2022-12-13T12:07:31.895Z,23.17
2022-12-13T12:11:47.810Z,26.30
2022-12-13T12:15:59.222Z,23.83
2022-12-13T12:20:05.860Z,25.33
2022-12-13T12:24:20.765Z,23.47
2022-12-13T12:28:44.817Z,23.60
2022-12-13T12:32:58.663Z,27.13
2022-12-13T12:37:40.416Z,25.97
2022-12-13T12:42:26.104Z,29.40
2022-12-13T12:47:08.529Z,25.30
2022-12-13T12:51:02.677Z,27.33
2022-12-13T12:55:45.081Z,26.90
2022-12-13T13:00:01.663Z,29.63
2022-12-13T13:04:08.597Z,33.13
2022-12-13T13:08:41.086Z,27.93
2022-12-13T13:17:34.926Z,27.20
2022-12-13T13:22:02.022Z,26.40
2022-12-13T13:26:27.063Z,24.67
2022-12-13T13:30:26.392Z,25.03
2022-12-13T13:34:32.512Z,30.90
2022-12-13T13:38:54.752Z,25.57
2022-12-13T13:43:12.470Z,27.00
2022-12-13T13:47:24.826Z,27.40
2022-12-13T13:51:41.436Z,28.10
2022-12-13T13:56:01.657Z,26.47
2022-12-13T14:00:12.201Z,24.07
2022-12-13T14:04:55.053Z,30.93
2022-12-13T14:09:30.911Z,26.17
2022-12-13T14:13:45.036Z,25.10
2022-12-13T14:17:57.875Z,24.20
2022-12-13T14:22:31.151Z,34.13
2022-12-13T14:26:55.975Z,34.03
2022-12-13T14:30:57.988Z,35.73
2022-12-13T14:35:24.681Z,41.37
2022-12-13T14:39:25.261Z,35.77
2022-12-13T14:43:31.404Z,30.10
2022-12-13T14:47:42.956Z,34.03
2022-12-13T14:51:47.682Z,34.40
2022-12-13T14:56:27.440Z,35.07
2022-12-13T15:00:23.488Z,34.73
2022-12-13T15:04:32.974Z,33.17
2022-12-13T15:08:37.167Z,41.77
2022-12-13T15:12:44.118Z,56.43
2022-12-13T15:16:50.970Z,47.37
2022-12-13T15:20:54.254Z,47.87
2022-12-13T15:24:57.635Z,42.87
2022-12-13T15:29:09.957Z,38.70
2022-12-13T15:33:30.455Z,31.03
2022-12-13T15:37:32.310Z,29.53
2022-12-13T15:41:36.737Z,32.77
2022-12-13T15:45:38.248Z,25.13
2022-12-13T15:49:51.946Z,28.47
2022-12-13T15:54:12.395Z,27.30
2022-12-13T15:58:25.986Z,28.20
2022-12-13T16:02:29.469Z,27.87
2022-12-13T16:06:32.769Z,26.70
2022-12-13T16:10:34.727Z,27.02
2022-12-13T16:14:40.238Z,28.40
2022-12-13T16:18:46.506Z,34.43
2022-12-13T16:22:48.047Z,37.00
2022-12-13T16:26:51.612Z,33.47
2022-12-13T16:31:02.456Z,32.63
2022-12-13T16:35:04.011Z,29.53
2022-12-13T16:39:07.120Z,36.60
2022-12-13T16:43:14.743Z,27.47
2022-12-13T16:47:27.010Z,28.10
2022-12-13T16:51:25.821Z,28.73
2022-12-13T16:55:27.051Z,26.27
2022-12-13T16:59:28.297Z,22.40
2022-12-13T17:03:29.617Z,23.03
2022-12-13T17:07:30.921Z,22.70
2022-12-13T17:11:32.863Z,24.63
2022-12-13T17:15:34.131Z,20.30
2022-12-13T17:19:35.379Z,21.83
2022-12-13T17:23:37.044Z,18.87
2022-12-13T17:27:38.791Z,22.87
2022-12-13T17:31:39.984Z,27.47
2022-12-13T17:35:41.294Z,20.92
2022-12-13T17:39:48.611Z,16.20
2022-12-13T17:43:49.887Z,16.73
2022-12-13T17:47:51.934Z,17.00
2022-12-13T17:51:54.215Z,22.93
2022-12-13T17:56:01.781Z,16.43
2022-12-13T18:00:04.495Z,18.50
2022-12-13T18:04:05.804Z,17.10
2022-12-13T18:08:07.600Z,20.70
2022-12-13T18:12:08.956Z,19.10
2022-12-13T18:16:14.446Z,18.87
2022-12-13T18:20:15.654Z,17.40
2022-12-13T18:24:16.909Z,17.37
2022-12-13T18:28:18.129Z,22.20
2022-12-13T18:32:19.328Z,20.60
2022-12-13T18:36:23.551Z,20.90
2022-12-13T18:40:25.068Z,16.77
2022-12-13T18:44:26.518Z,21.13
2022-12-13T18:48:28.562Z,19.93
2022-12-13T18:52:30.225Z,20.83
2022-12-13T18:56:31.692Z,22.63
2022-12-13T19:00:33.068Z,18.40
2022-12-13T19:04:35.258Z,16.63
2022-12-13T19:08:36.898Z,19.27
2022-12-13T19:12:38.241Z,17.90
2022-12-13T19:16:40.362Z,23.00
2022-12-13T19:20:50.108Z,21.10
2022-12-13T19:24:52.211Z,18.00
2022-12-13T19:28:56.341Z,18.33
2022-12-13T19:32:57.843Z,20.93
2022-12-13T19:37:03.048Z,21.67
2022-12-13T19:41:10.557Z,16.77
2022-12-13T19:45:11.883Z,19.40
2022-12-13T19:49:13.334Z,18.93
2022-12-13T19:53:14.598Z,17.33
2022-12-13T19:57:16.084Z,19.17
2022-12-13T20:01:18.569Z,20.20
2022-12-13T20:05:20.007Z,17.40
2022-12-13T20:09:21.372Z,18.07
2022-12-13T20:13:22.578Z,18.33
2022-12-13T20:17:23.829Z,21.73
2022-12-13T20:21:27.557Z,20.20
2022-12-13T20:25:28.923Z,17.53
2022-12-13T20:29:30.215Z,21.90
2022-12-13T20:33:32.071Z,17.83
2022-12-13T20:37:34.409Z,19.10
2022-12-13T20:41:36.539Z,17.27
2022-12-13T20:45:37.872Z,16.97
2022-12-13T20:49:39.525Z,20.60
2022-12-13T20:53:43.203Z,21.20
2022-12-13T20:57:44.475Z,21.30
2022-12-13T21:01:48.863Z,19.50
2022-12-13T21:05:49.358Z,20.33
2022-12-13T21:09:50.695Z,19.07
2022-12-13T21:14:21.977Z,20.10
2022-12-13T21:18:21.008Z,16.53
2022-12-13T21:22:22.250Z,22.23
2022-12-13T21:26:27.604Z,24.23
2022-12-13T21:30:27.964Z,24.00
2022-12-13T21:34:29.567Z,22.73
2022-12-13T21:38:30.886Z,22.27
2022-12-13T21:42:32.094Z,22.50
2022-12-13T21:47:10.112Z,24.17
2022-12-13T21:50:36.624Z,22.30
2022-12-13T21:54:37.822Z,19.50
2022-12-13T21:58:59.958Z,20.57
2022-12-13T22:03:05.322Z,18.57
2022-12-13T22:07:08.230Z,26.37
2022-12-13T22:11:21.052Z,23.03
2022-12-13T22:15:19.201Z,20.40
2022-12-13T22:19:21.165Z,16.87
2022-12-13T22:23:22.525Z,18.53
2022-12-13T22:27:24.671Z,17.87
2022-12-13T22:31:29.712Z,15.43
2022-12-13T22:35:28.859Z,19.60
2022-12-13T22:39:30.011Z,22.60
2022-12-13T22:43:35.431Z,18.80
2022-12-13T22:47:36.632Z,17.73
2022-12-13T22:51:38.937Z,17.40
2022-12-13T22:55:40.196Z,20.30
2022-12-13T22:59:41.517Z,17.60
2022-12-13T23:03:43.767Z,15.47
2022-12-13T23:07:48.563Z,17.43
2022-12-13T23:12:06.746Z,19.27
2022-12-13T23:16:08.273Z,13.77
2022-12-13T23:20:10.231Z,15.90
2022-12-13T23:24:13.029Z,17.40
2022-12-13T23:28:14.279Z,15.50
2022-12-13T23:32:16.029Z,16.03
2022-12-13T23:36:23.182Z,15.37
2022-12-13T23:40:24.550Z,17.53
2022-12-13T23:44:26.528Z,13.70
2022-12-13T23:48:28.597Z,13.57
2022-12-13T23:52:30.564Z,20.93
2022-12-13T23:56:33.375Z,15.77
